createdAt,value
2018-04-08T00:00:38.476Z,9.47
2018-04-08T00:03:06.318Z,11.37
2018-04-08T00:05:34.175Z,9.87
2018-04-08T00:08:02.051Z,10.00
2018-04-08T00:10:29.899Z,10.10
2018-04-08T00:12:57.732Z,10.37
2018-04-08T00:15:25.607Z,10.80
2018-04-08T00:17:53.532Z,10.77
2018-04-08T00:20:21.418Z,10.20
2018-04-08T00:22:49.288Z,10.87
2018-04-08T00:25:17.154Z,10.53
2018-04-08T00:27:45.079Z,10.47
2018-04-08T00:30:12.944Z,9.97
2018-04-08T00:32:40.816Z,10.57
2018-04-08T00:35:08.656Z,10.67
2018-04-08T00:37:36.508Z,9.77
2018-04-08T00:40:04.380Z,9.50
2018-04-08T00:42:32.227Z,10.53
2018-04-08T00:45:00.086Z,9.97
2018-04-08T00:47:27.978Z,9.70
2018-04-08T00:49:55.843Z,10.30
2018-04-08T00:52:23.721Z,9.20
2018-04-08T00:54:51.607Z,9.67
2018-04-08T00:57:19.519Z,10.50
2018-04-08T00:59:47.380Z,9.30
2018-04-08T01:02:15.254Z,10.17
2018-04-08T01:04:43.104Z,9.27
2018-04-08T01:07:10.968Z,9.37
2018-04-08T01:09:38.828Z,10.13
2018-04-08T01:12:06.698Z,9.57
2018-04-08T01:14:34.547Z,8.90
2018-04-08T01:17:02.482Z,8.63
2018-04-08T01:19:30.352Z,9.30
2018-04-08T01:21:58.227Z,8.80
2018-04-08T01:24:26.095Z,9.10
2018-04-08T01:26:53.973Z,9.10
2018-04-08T01:29:21.850Z,8.53
2018-04-08T01:31:49.744Z,10.20
2018-04-08T01:34:17.583Z,8.43
2018-04-08T01:36:45.460Z,8.60
2018-04-08T01:39:13.351Z,8.60
2018-04-08T01:41:41.219Z,9.23
2018-04-08T01:44:09.076Z,8.07
2018-04-08T01:46:36.989Z,9.70
2018-04-08T01:49:04.868Z,9.33
2018-04-08T01:51:32.711Z,8.47
2018-04-08T01:54:00.575Z,8.70
2018-04-08T01:56:28.547Z,9.60
2018-04-08T01:58:56.419Z,8.93
2018-04-08T02:01:24.324Z,8.90
2018-04-08T02:03:52.205Z,8.57
2018-04-08T02:06:20.071Z,8.00
2018-04-08T02:08:48.056Z,8.50
2018-04-08T02:11:15.931Z,9.60
2018-04-08T02:13:43.767Z,9.13
2018-04-08T02:16:11.643Z,8.43
2018-04-08T02:18:39.524Z,9.20
2018-04-08T02:21:07.363Z,7.97
2018-04-08T02:23:35.233Z,8.43
2018-04-08T02:26:03.091Z,8.33
2018-04-08T02:28:30.962Z,8.70
2018-04-08T02:30:58.854Z,8.30
2018-04-08T02:33:26.694Z,8.50
2018-04-08T02:35:54.568Z,8.50
2018-04-08T02:38:22.475Z,8.87
2018-04-08T02:40:50.328Z,8.43
2018-04-08T02:43:18.167Z,8.30
2018-04-08T02:45:46.073Z,8.80
2018-04-08T02:48:13.932Z,9.57
2018-04-08T02:50:41.805Z,8.20
2018-04-08T02:53:09.684Z,8.70
2018-04-08T02:55:37.565Z,8.73
2018-04-08T02:58:05.559Z,8.73
2018-04-08T03:00:33.436Z,7.97
2018-04-08T03:03:01.280Z,8.40
2018-04-08T03:05:29.122Z,8.17
2018-04-08T03:07:57.009Z,8.90
2018-04-08T03:10:24.897Z,8.73
2018-04-08T03:12:52.730Z,8.40
2018-04-08T03:15:20.926Z,8.93
2018-04-08T03:17:48.786Z,8.13
2018-04-08T03:20:16.656Z,8.23
2018-04-08T03:22:45.476Z,8.50
2018-04-08T03:25:13.340Z,9.30
2018-04-08T03:27:41.182Z,8.80
2018-04-08T03:30:09.082Z,9.63
2018-04-08T03:32:37.953Z,9.90
2018-04-08T03:35:05.784Z,10.00
2018-04-08T03:37:33.664Z,9.70
2018-04-08T03:40:01.491Z,10.40
2018-04-08T03:42:29.331Z,8.60
2018-04-08T03:44:57.236Z,10.40
2018-04-08T03:47:25.068Z,10.73
2018-04-08T03:49:52.911Z,9.43
2018-04-08T03:52:20.780Z,9.90
2018-04-08T03:54:48.655Z,10.70
2018-04-08T03:57:16.512Z,10.30
2018-04-08T03:59:44.411Z,10.77
2018-04-08T04:02:12.253Z,10.40
2018-04-08T04:04:40.100Z,9.73
2018-04-08T04:07:07.965Z,9.63
2018-04-08T04:09:35.825Z,8.80
2018-04-08T04:12:03.691Z,9.77
2018-04-08T04:14:31.531Z,9.90
2018-04-08T04:16:59.412Z,10.90
2018-04-08T04:19:33.427Z,10.57
2018-04-08T04:22:07.367Z,10.07
2018-04-08T04:24:41.266Z,9.90
2018-04-08T04:27:09.191Z,10.03
2018-04-08T04:29:37.055Z,9.53
2018-04-08T04:32:05.155Z,10.23
2018-04-08T04:34:33.019Z,10.70
2018-04-08T04:37:00.874Z,10.20
2018-04-08T04:39:28.762Z,10.40
2018-04-08T04:41:56.583Z,10.00
2018-04-08T04:44:24.471Z,11.30
2018-04-08T04:46:52.291Z,10.30
2018-04-08T04:49:20.180Z,10.20
2018-04-08T04:51:48.127Z,11.20
2018-04-08T04:54:15.962Z,10.47
2018-04-08T04:56:43.840Z,11.00
2018-04-08T04:59:11.676Z,11.10
2018-04-08T05:01:39.539Z,10.63
2018-04-08T05:04:07.358Z,10.60
2018-04-08T05:06:35.227Z,11.03
2018-04-08T05:09:03.165Z,11.10
2018-04-08T05:11:31.072Z,11.03
2018-04-08T05:13:58.967Z,10.97
2018-04-08T05:16:26.788Z,11.43
2018-04-08T05:18:54.688Z,10.93
2018-04-08T05:21:22.542Z,10.90
2018-04-08T05:23:50.372Z,10.83
2018-04-08T05:26:18.248Z,11.20
2018-04-08T05:28:46.067Z,10.70
2018-04-08T05:31:13.919Z,10.30
2018-04-08T05:33:41.750Z,11.60
2018-04-08T05:36:09.732Z,11.03
2018-04-08T05:38:37.584Z,10.60
2018-04-08T05:41:05.430Z,11.00
2018-04-08T05:43:33.323Z,11.30
2018-04-08T05:46:01.180Z,11.00
2018-04-08T05:48:29.051Z,10.73
2018-04-08T05:50:56.960Z,10.37
2018-04-08T05:53:24.824Z,11.27
2018-04-08T05:55:52.668Z,10.30
2018-04-08T05:58:20.531Z,10.97
2018-04-08T06:00:48.378Z,10.90
2018-04-08T06:03:16.263Z,10.07
2018-04-08T06:05:44.123Z,10.77
2018-04-08T06:08:11.955Z,11.30
2018-04-08T06:10:39.860Z,10.50
2018-04-08T06:13:07.706Z,10.93
2018-04-08T06:15:35.565Z,10.70
2018-04-08T06:18:03.468Z,11.10
2018-04-08T06:20:31.359Z,10.20
2018-04-08T06:22:59.307Z,11.03
2018-04-08T06:25:27.195Z,10.67
2018-04-08T06:27:55.059Z,10.77
2018-04-08T06:30:22.979Z,9.80
2018-04-08T06:32:50.822Z,10.70
2018-04-08T06:35:18.710Z,10.20
2018-04-08T06:37:46.563Z,9.83
2018-04-08T06:40:14.402Z,10.10
2018-04-08T06:42:42.351Z,10.17
2018-04-08T06:45:10.203Z,10.60
2018-04-08T06:47:38.091Z,10.90
2018-04-08T06:50:05.946Z,10.77
2018-04-08T06:52:33.776Z,9.53
2018-04-08T06:55:01.711Z,10.20
2018-04-08T06:57:29.579Z,10.50
2018-04-08T06:59:57.439Z,10.13
2018-04-08T07:02:25.264Z,10.90
2018-04-08T07:04:53.140Z,10.33
2018-04-08T07:07:20.973Z,10.67
2018-04-08T07:09:48.848Z,10.37
2018-04-08T07:12:16.724Z,10.43
2018-04-08T07:14:44.659Z,10.80
2018-04-08T07:17:12.492Z,10.23
2018-04-08T07:19:40.407Z,10.57
2018-04-08T07:22:08.930Z,11.03
2018-04-08T07:24:38.345Z,10.53
2018-04-08T07:27:07.023Z,9.93
2018-04-08T07:29:34.876Z,11.50
2018-04-08T07:32:02.749Z,10.27
2018-04-08T07:34:30.603Z,10.73
2018-04-08T07:36:58.444Z,10.87
2018-04-08T07:39:26.294Z,10.20
2018-04-08T07:41:54.170Z,9.37
2018-04-08T07:44:22.003Z,10.23
2018-04-08T07:46:49.833Z,10.27
2018-04-08T07:49:17.718Z,9.97
2018-04-08T07:51:45.569Z,10.63
2018-04-08T07:54:13.459Z,10.43
2018-04-08T07:56:41.322Z,10.60
2018-04-08T07:59:09.256Z,11.33
2018-04-08T08:01:37.081Z,11.37
2018-04-08T08:04:04.943Z,10.33
2018-04-08T08:06:32.802Z,11.70
2018-04-08T08:09:00.652Z,11.77
2018-04-08T08:11:28.606Z,10.03
2018-04-08T08:13:56.652Z,11.20
2018-04-08T08:16:24.633Z,11.27
2018-04-08T08:18:52.497Z,10.00
2018-04-08T08:21:20.367Z,10.30
2018-04-08T08:23:48.206Z,9.53
2018-04-08T08:26:16.066Z,10.90
2018-04-08T08:28:43.898Z,11.07
2018-04-08T08:31:11.749Z,11.90
2018-04-08T08:33:39.649Z,10.47
2018-04-08T08:36:07.474Z,10.80
2018-04-08T08:38:35.311Z,10.57
2018-04-08T08:41:03.295Z,11.60
2018-04-08T08:43:31.125Z,11.10
2018-04-08T08:45:58.971Z,10.40
2018-04-08T08:48:26.827Z,10.50
2018-04-08T08:50:54.673Z,10.57
2018-04-08T08:53:22.520Z,10.33
2018-04-08T08:55:50.387Z,10.27
2018-04-08T08:58:18.205Z,11.00
2018-04-08T09:00:46.069Z,10.50
2018-04-08T09:03:13.960Z,10.83
2018-04-08T09:05:42.020Z,9.70
2018-04-08T09:08:09.979Z,9.80
2018-04-08T09:10:37.851Z,11.30
2018-04-08T09:13:05.765Z,10.37
2018-04-08T09:15:33.733Z,10.23
2018-04-08T09:18:01.587Z,10.20
2018-04-08T09:20:45.333Z,10.50
2018-04-08T09:23:30.080Z,10.50
2018-04-08T09:25:58.863Z,9.97
2018-04-08T09:28:26.699Z,10.23
2018-04-08T09:30:54.572Z,10.10
2018-04-08T09:33:22.403Z,9.90
2018-04-08T09:35:50.220Z,10.13
2018-04-08T09:38:18.135Z,9.77
2018-04-08T09:40:46.131Z,9.43
2018-04-08T09:43:14.101Z,9.70
2018-04-08T09:45:42.021Z,9.53
2018-04-08T09:48:09.946Z,8.87
2018-04-08T09:50:38.797Z,9.13
2018-04-08T09:53:06.671Z,9.60
2018-04-08T09:55:35.600Z,9.13
2018-04-08T09:58:19.469Z,9.77
2018-04-08T10:01:03.176Z,9.27
2018-04-08T10:03:33.873Z,9.20
2018-04-08T10:06:01.770Z,9.60
2018-04-08T10:08:29.686Z,8.90
2018-04-08T10:10:57.535Z,8.00
2018-04-08T10:13:25.481Z,8.97
2018-04-08T10:15:53.392Z,9.10
2018-04-08T10:18:21.672Z,8.87
2018-04-08T10:20:49.546Z,8.53
2018-04-08T10:23:17.492Z,8.77
2018-04-08T10:25:45.446Z,8.20
2018-04-08T10:28:13.329Z,8.83
2018-04-08T10:30:41.205Z,8.60
2018-04-08T10:33:09.068Z,8.70
2018-04-08T10:35:36.962Z,8.00
2018-04-08T10:38:04.858Z,8.23
2018-04-08T10:40:32.708Z,8.23
2018-04-08T10:43:00.585Z,8.17
2018-04-08T10:45:28.425Z,7.37
2018-04-08T10:47:56.303Z,7.30
2018-04-08T10:50:24.142Z,7.90
2018-04-08T10:52:52.068Z,8.80
2018-04-08T10:55:19.929Z,8.50
2018-04-08T10:57:47.782Z,8.37
2018-04-08T11:00:15.677Z,7.90
2018-04-08T11:02:43.533Z,7.97
2018-04-08T11:05:11.430Z,8.27
2018-04-08T11:07:39.275Z,7.83
2018-04-08T11:10:07.131Z,7.93
2018-04-08T11:12:35.003Z,9.00
2018-04-08T11:15:02.835Z,7.97
2018-04-08T11:17:30.699Z,8.47
2018-04-08T11:19:58.569Z,8.17
2018-04-08T11:22:27.569Z,7.90
2018-04-08T11:24:55.399Z,7.60
2018-04-08T11:27:23.273Z,8.23
2018-04-08T11:29:51.203Z,8.27
2018-04-08T11:32:19.060Z,7.30
2018-04-08T11:34:47.608Z,8.67
2018-04-08T11:37:16.548Z,7.23
2018-04-08T11:39:44.424Z,8.10
2018-04-08T11:42:12.949Z,7.90
2018-04-08T11:44:40.823Z,7.70
2018-04-08T11:47:08.706Z,8.47
2018-04-08T11:49:36.579Z,7.30
2018-04-08T11:52:04.447Z,7.27
2018-04-08T11:54:32.324Z,7.23
2018-04-08T11:57:00.265Z,7.00
2018-04-08T11:59:28.122Z,7.83
2018-04-08T12:01:56.007Z,6.90
2018-04-08T12:04:23.889Z,8.17
2018-04-08T12:06:51.729Z,7.37
2018-04-08T12:09:19.618Z,7.23
2018-04-08T12:11:47.500Z,7.47
2018-04-08T12:14:15.397Z,7.00
2018-04-08T12:16:43.363Z,7.27
2018-04-08T12:19:11.256Z,7.97
2018-04-08T12:21:39.284Z,7.90
2018-04-08T12:24:07.139Z,7.90
2018-04-08T12:26:41.071Z,8.17
2018-04-08T12:29:08.940Z,7.53
2018-04-08T12:31:36.834Z,7.40
2018-04-08T12:34:04.715Z,7.77
2018-04-08T12:36:32.648Z,8.50
2018-04-08T12:39:00.564Z,7.83
2018-04-08T12:41:28.419Z,7.30
2018-04-08T12:43:56.321Z,8.13
2018-04-08T12:46:26.262Z,7.73
2018-04-08T12:48:54.391Z,8.40
2018-04-08T12:51:22.878Z,8.00
2018-04-08T12:53:50.730Z,8.20
2018-04-08T12:56:18.591Z,8.53
2018-04-08T12:58:46.463Z,8.00
2018-04-08T13:01:14.350Z,7.77
2018-04-08T13:03:42.238Z,7.73
2018-04-08T13:06:10.187Z,8.60
2018-04-08T13:08:38.056Z,8.17
2018-04-08T13:11:05.985Z,7.83
2018-04-08T13:13:33.833Z,8.30
2018-04-08T13:16:01.793Z,7.53
2018-04-08T13:18:29.658Z,7.93
2018-04-08T13:20:57.556Z,8.60
2018-04-08T13:23:25.852Z,8.30
2018-04-08T13:25:53.684Z,7.97
2018-04-08T13:28:21.550Z,8.30
2018-04-08T13:30:49.391Z,8.50
2018-04-08T13:33:17.295Z,7.80
2018-04-08T13:35:45.738Z,8.63
2018-04-08T13:38:13.636Z,7.93
2018-04-08T13:40:41.550Z,8.63
2018-04-08T13:43:09.383Z,8.53
2018-04-08T13:45:38.236Z,9.23
2018-04-08T13:48:06.090Z,8.53
2018-04-08T13:50:33.923Z,8.87
2018-04-08T13:53:01.759Z,8.60
2018-04-08T13:55:29.612Z,8.60
2018-04-08T13:57:57.448Z,8.70
2018-04-08T14:00:25.347Z,8.80
2018-04-08T14:02:53.303Z,8.10
2018-04-08T14:05:21.219Z,8.90
2018-04-08T14:07:49.043Z,10.00
2018-04-08T14:10:16.993Z,8.97
2018-04-08T14:12:44.909Z,9.00
2018-04-08T14:15:12.758Z,9.50
2018-04-08T14:17:40.672Z,8.33
2018-04-08T14:20:08.607Z,8.10
2018-04-08T14:22:36.472Z,8.67
2018-04-08T14:25:04.387Z,8.23
2018-04-08T14:27:32.259Z,10.50
2018-04-08T14:30:00.099Z,10.20
2018-04-08T14:32:28.003Z,9.80
2018-04-08T14:34:55.827Z,10.53
2018-04-08T14:37:23.700Z,10.77
2018-04-08T14:39:51.544Z,10.53
2018-04-08T14:42:19.404Z,11.10
2018-04-08T14:44:47.436Z,11.60
2018-04-08T14:47:15.288Z,10.97
2018-04-08T14:49:43.203Z,10.90
2018-04-08T14:52:11.133Z,11.87
2018-04-08T14:54:38.975Z,11.30
2018-04-08T14:57:06.807Z,11.97
2018-04-08T14:59:34.700Z,12.93
2018-04-08T15:02:02.539Z,12.37
2018-04-08T15:04:30.380Z,12.23
2018-04-08T15:06:58.379Z,12.43
2018-04-08T15:09:26.223Z,12.93
2018-04-08T15:11:54.070Z,11.77
2018-04-08T15:14:21.957Z,12.87
2018-04-08T15:16:49.816Z,12.50
2018-04-08T15:19:17.673Z,12.77
2018-04-08T15:21:45.613Z,12.60
2018-04-08T15:24:14.590Z,12.50
2018-04-08T15:26:42.457Z,13.27
2018-04-08T15:29:10.381Z,13.40
2018-04-08T15:31:38.232Z,13.40
2018-04-08T15:34:06.087Z,13.53
2018-04-08T15:36:34.004Z,14.87
2018-04-08T15:39:01.872Z,14.60
2018-04-08T15:41:29.777Z,13.70
2018-04-08T15:43:57.658Z,13.33
2018-04-08T15:46:25.515Z,13.43
2018-04-08T15:48:53.380Z,12.47
2018-04-08T15:51:21.230Z,13.70
2018-04-08T15:53:50.216Z,14.03
2018-04-08T15:56:18.047Z,13.37
2018-04-08T15:58:45.917Z,13.03
2018-04-08T16:01:14.066Z,14.13
2018-04-08T16:03:41.924Z,14.63
2018-04-08T16:06:09.918Z,14.40
2018-04-08T16:08:37.757Z,15.10
2018-04-08T16:11:05.642Z,13.90
2018-04-08T16:13:33.483Z,16.17
2018-04-08T16:16:01.314Z,14.43
2018-04-08T16:18:29.279Z,14.97
2018-04-08T16:20:57.125Z,15.90
2018-04-08T16:23:25.015Z,15.03
2018-04-08T16:25:52.868Z,13.57
2018-04-08T16:28:20.803Z,14.67
2018-04-08T16:30:48.652Z,13.93
2018-04-08T16:33:16.544Z,15.27
2018-04-08T16:35:44.454Z,15.90
2018-04-08T16:38:12.287Z,16.50
2018-04-08T16:40:40.164Z,15.60
2018-04-08T16:43:08.018Z,16.00
2018-04-08T16:45:35.975Z,17.37
2018-04-08T16:48:03.871Z,17.67
2018-04-08T16:50:31.812Z,18.10
2018-04-08T16:52:59.668Z,16.73
2018-04-08T16:55:27.517Z,18.23
2018-04-08T16:57:55.510Z,17.30
2018-04-08T17:00:23.443Z,16.77
2018-04-08T17:02:51.324Z,16.90
2018-04-08T17:05:19.224Z,19.13
2018-04-08T17:07:47.068Z,16.00
2018-04-08T17:10:14.937Z,17.33
2018-04-08T17:12:42.991Z,16.20
2018-04-08T17:15:11.147Z,18.17
2018-04-08T17:17:39.227Z,17.77
2018-04-08T17:20:07.187Z,16.70
2018-04-08T17:22:35.151Z,18.47
2018-04-08T17:25:03.070Z,17.07
2018-04-08T17:27:31.035Z,17.97
2018-04-08T17:29:58.949Z,18.60
2018-04-08T17:32:26.872Z,18.30
2018-04-08T17:34:54.756Z,18.70
2018-04-08T17:37:22.644Z,17.40
2018-04-08T17:39:50.520Z,18.70
2018-04-08T17:42:18.423Z,21.70
2018-04-08T17:44:46.418Z,20.10
2018-04-08T17:47:14.475Z,19.47
2018-04-08T17:49:42.423Z,18.73
2018-04-08T17:52:10.331Z,17.90
2018-04-08T17:54:38.258Z,19.67
2018-04-08T17:57:06.192Z,20.03
2018-04-08T17:59:34.077Z,17.23
2018-04-08T18:02:01.937Z,19.57
2018-04-08T18:04:29.835Z,23.20
2018-04-08T18:06:57.688Z,21.20
2018-04-08T18:09:25.886Z,21.30
2018-04-08T18:11:53.769Z,20.23
2018-04-08T18:14:21.667Z,21.00
2018-04-08T18:16:49.535Z,22.47
2018-04-08T18:19:17.382Z,20.23
2018-04-08T18:21:45.236Z,24.73
2018-04-08T18:24:13.167Z,24.20
2018-04-08T18:26:41.019Z,24.80
2018-04-08T18:29:08.947Z,22.63
2018-04-08T18:31:36.811Z,21.50
2018-04-08T18:34:04.679Z,20.00
2018-04-08T18:36:32.507Z,20.50
2018-04-08T18:39:00.468Z,19.60
2018-04-08T18:41:28.315Z,23.27
2018-04-08T18:43:56.156Z,24.27
2018-04-08T18:46:24.015Z,26.00
2018-04-08T18:48:51.897Z,20.43
2018-04-08T18:51:19.755Z,21.90
2018-04-08T18:53:47.647Z,21.93
2018-04-08T18:56:15.555Z,21.13
2018-04-08T18:58:43.694Z,21.73
2018-04-08T19:01:11.627Z,22.10
2018-04-08T19:03:39.592Z,23.13
2018-04-08T19:06:07.448Z,21.90
2018-04-08T19:08:35.344Z,23.40
2018-04-08T19:11:03.328Z,22.50
2018-04-08T19:13:31.199Z,19.83
2018-04-08T19:15:59.174Z,20.70
2018-04-08T19:18:27.252Z,20.20
2018-04-08T19:20:55.111Z,22.37
2018-04-08T19:23:23.012Z,20.43
2018-04-08T19:25:50.847Z,20.87
2018-04-08T19:28:18.756Z,21.43
2018-04-08T19:30:46.696Z,22.73
2018-04-08T19:33:14.537Z,21.40
2018-04-08T19:35:42.591Z,22.40
2018-04-08T19:38:10.524Z,21.90
2018-04-08T19:40:38.344Z,23.10
2018-04-08T19:43:06.255Z,23.47
2018-04-08T19:45:34.114Z,25.67
2018-04-08T19:48:02.004Z,27.80
2018-04-08T19:50:29.939Z,23.70
2018-04-08T19:52:57.782Z,24.47
2018-04-08T19:55:25.649Z,23.20
2018-04-08T19:57:53.563Z,38.17
2018-04-08T20:00:21.406Z,23.47
2018-04-08T20:02:49.246Z,23.37
2018-04-08T20:05:17.124Z,23.20
2018-04-08T20:07:45.059Z,22.50
2018-04-08T20:10:13.103Z,25.00
2018-04-08T20:12:41.203Z,28.57
2018-04-08T20:15:09.039Z,28.37
2018-04-08T20:17:36.988Z,30.93
2018-04-08T20:20:04.842Z,27.80
2018-04-08T20:22:32.852Z,27.00
2018-04-08T20:25:00.812Z,26.17
2018-04-08T20:27:28.824Z,26.03
2018-04-08T20:29:56.772Z,27.50
2018-04-08T20:32:24.778Z,24.33
2018-04-08T20:34:52.656Z,27.00
2018-04-08T20:37:20.620Z,30.10
2018-04-08T20:39:48.503Z,31.00
2018-04-08T20:42:16.431Z,33.07
2018-04-08T20:44:44.300Z,32.83
2018-04-08T20:47:12.230Z,37.47
2018-04-08T20:49:40.144Z,33.37
2018-04-08T20:52:23.054Z,32.53
2018-04-08T20:54:51.961Z,33.60
2018-04-08T20:57:19.855Z,32.87
2018-04-08T20:59:47.719Z,32.17
2018-04-08T21:02:15.592Z,34.23
2018-04-08T21:04:43.478Z,31.67
2018-04-08T21:07:11.608Z,33.23
2018-04-08T21:09:39.699Z,37.80
2018-04-08T21:12:07.555Z,37.37
2018-04-08T21:14:35.419Z,32.50
2018-04-08T21:17:03.376Z,64.27
2018-04-08T21:19:31.229Z,41.37
2018-04-08T21:21:59.076Z,31.33
2018-04-08T21:24:26.991Z,32.03
2018-04-08T21:26:55.008Z,31.67
2018-04-08T21:29:22.860Z,32.30
2018-04-08T21:31:50.752Z,32.30
2018-04-08T21:34:18.714Z,32.80
2018-04-08T21:36:46.572Z,32.63
2018-04-08T21:39:14.512Z,31.23
2018-04-08T21:41:42.356Z,31.07
2018-04-08T21:44:10.295Z,31.13
2018-04-08T21:46:38.162Z,30.83
2018-04-08T21:49:06.004Z,32.20
2018-04-08T21:51:33.902Z,30.53
2018-04-08T21:54:01.789Z,31.07
2018-04-08T21:56:29.783Z,34.33
2018-04-08T21:58:58.064Z,31.30
2018-04-08T22:01:26.281Z,35.23
2018-04-08T22:03:54.190Z,32.43
2018-04-08T22:06:22.038Z,34.57
2018-04-08T22:08:49.915Z,33.43
2018-04-08T22:11:17.763Z,36.03
2018-04-08T22:13:45.668Z,44.57
2018-04-08T22:16:13.573Z,48.63
2018-04-08T22:18:41.536Z,41.50
2018-04-08T22:21:09.478Z,37.17
2018-04-08T22:23:37.355Z,38.33
2018-04-08T22:26:05.202Z,35.20
2018-04-08T22:28:33.066Z,33.13
2018-04-08T22:31:00.939Z,30.57
2018-04-08T22:33:28.839Z,38.70
2018-04-08T22:35:56.719Z,33.50
2018-04-08T22:38:24.630Z,27.13
2018-04-08T22:40:52.486Z,25.10
2018-04-08T22:43:20.324Z,21.87
2018-04-08T22:45:48.297Z,24.03
2018-04-08T22:48:16.150Z,24.47
2018-04-08T22:50:44.015Z,25.17
2018-04-08T22:53:11.937Z,24.27
2018-04-08T22:55:39.810Z,26.63
2018-04-08T22:58:07.665Z,25.73
2018-04-08T23:00:35.559Z,25.60
2018-04-08T23:03:03.409Z,25.57
2018-04-08T23:05:31.319Z,25.13
2018-04-08T23:07:59.287Z,22.37
2018-04-08T23:10:27.159Z,21.63
2018-04-08T23:12:55.020Z,24.50
2018-04-08T23:15:22.961Z,25.67
2018-04-08T23:17:50.828Z,24.10
2018-04-08T23:20:18.772Z,22.60
2018-04-08T23:22:46.660Z,26.20
2018-04-08T23:25:14.528Z,23.67
2018-04-08T23:27:42.533Z,21.60
2018-04-08T23:30:10.487Z,22.50
2018-04-08T23:32:38.336Z,22.30
2018-04-08T23:35:06.239Z,22.57
2018-04-08T23:37:34.156Z,22.13
2018-04-08T23:40:02.015Z,24.10
2018-04-08T23:42:29.843Z,21.93
2018-04-08T23:44:57.701Z,24.37
2018-04-08T23:47:25.520Z,27.13
2018-04-08T23:49:53.372Z,24.10
2018-04-08T23:52:21.235Z,22.50
2018-04-08T23:54:49.059Z,25.43
2018-04-08T23:57:17.731Z,25.50
2018-04-08T23:59:45.683Z,24.93
